createdAt,value
2023-01-23T00:01:08.995Z,11.60
2023-01-23T00:03:36.083Z,13.90
2023-01-23T00:06:06.068Z,12.30
2023-01-23T00:08:33.364Z,13.30
2023-01-23T00:11:00.488Z,11.50
2023-01-23T00:13:27.611Z,12.90
2023-01-23T00:15:54.909Z,11.50
2023-01-23T00:18:21.996Z,11.20
2023-01-23T00:20:49.118Z,11.10
2023-01-23T00:23:16.301Z,10.90
2023-01-23T00:25:43.422Z,10.00
2023-01-23T00:28:10.604Z,11.30
2023-01-23T00:30:37.796Z,11.80
2023-01-23T00:33:04.976Z,10.90
2023-01-23T00:35:34.394Z,10.40
2023-01-23T00:38:01.588Z,9.90
2023-01-23T00:40:28.704Z,11.00
2023-01-23T00:42:55.835Z,11.00
2023-01-23T00:45:23.589Z,10.10
2023-01-23T00:47:50.656Z,10.90
2023-01-23T00:50:18.028Z,12.50
2023-01-23T00:52:45.452Z,10.50
2023-01-23T00:55:14.083Z,9.80
2023-01-23T00:57:41.211Z,10.30
2023-01-23T01:00:09.027Z,11.20
2023-01-23T01:02:36.329Z,11.00
2023-01-23T01:05:03.927Z,10.10
2023-01-23T01:07:31.026Z,9.90
2023-01-23T01:09:58.144Z,9.80
2023-01-23T01:12:25.330Z,10.90
2023-01-23T01:14:52.378Z,8.90
2023-01-23T01:17:19.495Z,10.40
2023-01-23T01:19:48.485Z,9.20
2023-01-23T01:22:15.688Z,9.00
2023-01-23T01:24:42.834Z,8.90
2023-01-23T01:27:10.069Z,8.50
2023-01-23T01:29:37.287Z,8.90
2023-01-23T01:32:05.192Z,9.10
2023-01-23T01:34:32.296Z,8.40
2023-01-23T01:36:59.568Z,9.20
2023-01-23T01:39:26.696Z,8.40
2023-01-23T01:41:54.271Z,8.50
2023-01-23T01:44:22.798Z,8.70
2023-01-23T01:46:50.010Z,8.00
2023-01-23T01:49:21.782Z,8.40
2023-01-23T01:51:55.989Z,8.20
2023-01-23T01:54:33.523Z,8.50
2023-01-23T01:57:19.007Z,9.10
2023-01-23T01:59:47.803Z,8.40
2023-01-23T02:02:17.944Z,8.40
2023-01-23T02:04:48.438Z,8.60
2023-01-23T02:07:28.752Z,7.50
2023-01-23T02:09:55.993Z,9.60
2023-01-23T02:12:23.452Z,7.70
2023-01-23T02:14:50.570Z,8.10
2023-01-23T02:17:17.666Z,8.70
2023-01-23T02:19:52.229Z,8.20
2023-01-23T02:22:56.066Z,7.80
2023-01-23T02:25:27.331Z,7.70
2023-01-23T02:27:54.531Z,7.80
2023-01-23T02:30:22.465Z,7.50
2023-01-23T02:32:51.238Z,7.80
2023-01-23T02:35:29.548Z,7.10
2023-01-23T02:38:00.935Z,7.10
2023-01-23T02:40:39.124Z,8.30
2023-01-23T02:43:11.352Z,10.10
2023-01-23T02:45:41.569Z,8.00
2023-01-23T02:48:09.047Z,7.20
2023-01-23T02:50:37.104Z,7.30
2023-01-23T02:53:04.323Z,6.80
2023-01-23T02:55:33.264Z,7.50
2023-01-23T02:58:19.704Z,7.60
2023-01-23T03:00:47.384Z,6.70
2023-01-23T03:03:16.175Z,8.40
2023-01-23T03:05:43.319Z,7.60
2023-01-23T03:08:10.684Z,7.50
2023-01-23T03:10:37.747Z,6.60
2023-01-23T03:13:07.530Z,8.20
2023-01-23T03:15:35.522Z,7.80
2023-01-23T03:18:02.739Z,7.50
2023-01-23T03:20:31.132Z,7.60
2023-01-23T03:22:58.226Z,8.20
2023-01-23T03:25:28.364Z,7.70
2023-01-23T03:27:55.517Z,8.00
2023-01-23T03:30:22.743Z,7.60
2023-01-23T03:32:51.828Z,6.80
2023-01-23T03:35:22.033Z,8.00
2023-01-23T03:37:52.398Z,7.60
2023-01-23T03:40:40.335Z,7.70
2023-01-23T03:43:07.606Z,8.10
2023-01-23T03:45:35.900Z,8.40
2023-01-23T03:48:03.323Z,8.00
2023-01-23T03:50:30.544Z,7.80
2023-01-23T03:52:57.685Z,7.80
2023-01-23T03:55:25.565Z,8.00
2023-01-23T03:57:53.604Z,7.60
2023-01-23T04:00:31.805Z,7.70
2023-01-23T04:03:04.504Z,9.10
2023-01-23T04:05:31.890Z,7.80
2023-01-23T04:07:59.472Z,9.60
2023-01-23T04:10:27.204Z,9.20
2023-01-23T04:12:55.949Z,8.10
2023-01-23T04:15:23.489Z,7.40
2023-01-23T04:17:51.549Z,9.30
2023-01-23T04:20:19.001Z,9.20
2023-01-23T04:22:46.341Z,10.90
2023-01-23T04:25:13.995Z,9.70
2023-01-23T04:27:41.509Z,10.10
2023-01-23T04:30:10.028Z,8.50
2023-01-23T04:32:37.287Z,8.80
2023-01-23T04:35:04.617Z,9.10
2023-01-23T04:37:31.905Z,8.90
2023-01-23T04:39:59.454Z,9.70
2023-01-23T04:42:26.820Z,10.00
2023-01-23T04:45:08.321Z,10.20
2023-01-23T04:48:03.125Z,9.60
2023-01-23T04:50:30.328Z,9.60
2023-01-23T04:52:58.548Z,11.10
2023-01-23T04:55:26.297Z,11.30
2023-01-23T04:57:54.667Z,10.60
2023-01-23T05:00:24.744Z,10.60
2023-01-23T05:02:52.254Z,10.70
2023-01-23T05:05:21.404Z,10.00
2023-01-23T05:07:51.039Z,11.30
2023-01-23T05:10:18.507Z,12.20
2023-01-23T05:12:46.749Z,13.40
2023-01-23T05:15:13.969Z,11.50
2023-01-23T05:17:41.784Z,11.20
2023-01-23T05:20:11.023Z,10.10
2023-01-23T05:22:39.273Z,10.80
2023-01-23T05:25:07.118Z,12.70
2023-01-23T05:27:34.478Z,12.30
2023-01-23T05:30:01.733Z,12.20
2023-01-23T05:32:32.089Z,13.00
2023-01-23T05:35:19.733Z,13.50
2023-01-23T05:37:53.195Z,12.90
2023-01-23T05:40:23.008Z,13.30
2023-01-23T05:43:19.577Z,12.60
2023-01-23T05:46:05.667Z,13.00
2023-01-23T05:48:53.593Z,13.90
2023-01-23T05:51:21.362Z,16.90
2023-01-23T05:53:48.874Z,15.10
2023-01-23T05:56:16.845Z,14.90
2023-01-23T05:59:05.553Z,15.50
2023-01-23T06:01:47.205Z,13.10
2023-01-23T06:04:49.637Z,12.80
2023-01-23T06:07:20.092Z,12.80
2023-01-23T06:09:47.902Z,14.40
2023-01-23T06:12:15.123Z,14.20
2023-01-23T06:14:42.942Z,13.50
2023-01-23T10:40:59.700Z,10.60
2023-01-23T10:43:26.955Z,9.80
2023-01-23T10:45:54.131Z,11.80
2023-01-23T10:48:51.239Z,9.20
2023-01-23T10:51:37.269Z,9.10
2023-01-23T10:54:33.992Z,7.10
2023-01-23T10:57:02.367Z,9.40
2023-01-23T10:59:48.933Z,10.00
2023-01-23T11:02:16.218Z,8.30
2023-01-23T11:04:45.572Z,9.60
2023-01-23T11:07:23.783Z,9.00
2023-01-23T11:09:57.932Z,9.30
2023-01-23T11:12:30.084Z,8.80
2023-01-23T11:15:14.053Z,8.90
2023-01-23T11:20:40.592Z,8.00
2023-01-23T11:23:13.704Z,8.80
2023-01-23T11:25:43.537Z,8.70
2023-01-23T11:28:31.063Z,8.50
2023-01-23T11:31:15.245Z,8.20
2023-01-23T11:34:05.574Z,8.30
2023-01-23T11:36:41.580Z,7.80
2023-01-23T11:39:31.497Z,8.00
2023-01-23T11:41:58.803Z,8.60
2023-01-23T11:44:28.224Z,8.80
2023-01-23T11:47:16.676Z,9.00
2023-01-23T11:50:11.885Z,8.70
2023-01-23T11:52:39.265Z,8.30
2023-01-23T11:55:25.706Z,7.70
2023-01-23T11:58:22.041Z,9.00
2023-01-23T12:00:49.214Z,8.00
2023-01-23T12:03:54.634Z,9.20
2023-01-23T12:06:35.305Z,8.00
2023-01-23T12:09:16.261Z,8.00
2023-01-23T12:12:01.021Z,8.40
2023-01-23T12:14:56.870Z,8.60
2023-01-23T12:17:55.247Z,9.40
2023-01-23T12:20:36.406Z,11.00
2023-01-23T12:23:07.707Z,10.10
2023-01-23T12:25:36.108Z,11.20
2023-01-23T12:28:36.099Z,8.60
2023-01-23T12:31:21.991Z,10.00
2023-01-23T12:34:04.424Z,11.50
2023-01-23T12:36:59.470Z,10.20
2023-01-23T12:39:48.692Z,10.60
2023-01-23T12:42:29.795Z,8.40
2023-01-23T12:45:12.166Z,8.40
2023-01-23T12:47:47.869Z,8.60
2023-01-23T12:50:20.062Z,9.60
2023-01-23T12:52:51.861Z,9.50
2023-01-23T12:55:24.866Z,10.50
2023-01-23T12:58:07.229Z,9.10
2023-01-23T13:01:04.141Z,9.70
2023-01-23T13:04:02.828Z,8.90
2023-01-23T13:06:40.607Z,7.50
2023-01-23T13:09:23.107Z,9.50
2023-01-23T13:12:28.763Z,9.30
2023-01-23T13:15:22.734Z,9.50
2023-01-23T13:17:57.986Z,9.00
2023-01-23T13:20:52.394Z,9.80
2023-01-23T13:23:26.947Z,11.50
2023-01-23T13:26:12.457Z,8.70
2023-01-23T13:28:48.422Z,11.10
2023-01-23T13:31:35.355Z,9.20
2023-01-23T13:34:14.978Z,8.40
2023-01-23T13:36:46.717Z,10.00
2023-01-23T13:39:16.816Z,10.30
2023-01-23T13:41:44.881Z,11.10
2023-01-23T13:44:35.749Z,9.90
2023-01-23T14:22:51.354Z,8.30
2023-01-23T14:25:18.828Z,9.00
2023-01-23T14:27:54.414Z,7.80
2023-01-23T14:30:27.440Z,9.70
2023-01-23T14:32:54.878Z,9.00
2023-01-23T14:35:27.784Z,9.80
2023-01-23T18:35:15.903Z,15.00
2023-01-23T18:38:04.840Z,13.70
2023-01-23T18:40:43.569Z,12.50
2023-01-23T18:43:30.556Z,11.80
2023-01-23T18:46:01.309Z,13.80
2023-01-23T18:48:30.620Z,12.30
2023-01-23T18:51:02.037Z,12.10
2023-01-23T18:53:30.944Z,12.30
2023-01-23T18:56:22.744Z,13.20
2023-01-23T18:59:27.071Z,13.30
2023-01-23T19:02:18.118Z,12.20
2023-01-23T19:05:01.508Z,11.70
2023-01-23T19:07:31.695Z,11.40
2023-01-23T19:10:02.008Z,12.90
2023-01-23T19:12:36.804Z,13.50
2023-01-23T19:15:29.255Z,11.30
2023-01-23T19:18:31.507Z,13.10
2023-01-23T19:21:17.150Z,11.10
2023-01-23T19:24:02.893Z,13.70
2023-01-23T19:26:33.729Z,13.90
2023-01-23T19:29:19.062Z,10.10
2023-01-23T19:32:06.128Z,13.10
2023-01-23T19:34:36.304Z,12.80
2023-01-23T19:37:07.661Z,12.50
2023-01-23T19:39:37.046Z,11.80
2023-01-23T19:42:13.335Z,12.70
2023-01-23T19:44:42.249Z,11.40
2023-01-23T19:47:11.155Z,10.90
2023-01-23T19:49:40.297Z,11.10
2023-01-23T19:52:13.452Z,11.00
2023-01-23T19:54:42.271Z,11.50
2023-01-23T19:57:11.092Z,12.00
2023-01-23T19:59:39.738Z,12.20
2023-01-23T20:02:20.710Z,13.30
2023-01-23T20:04:49.467Z,12.40
2023-01-23T20:07:18.890Z,13.60
2023-01-23T20:09:47.738Z,14.20
2023-01-23T20:12:17.796Z,14.10
2023-01-23T20:14:46.557Z,12.90
2023-01-23T20:17:15.104Z,13.30
2023-01-23T20:19:43.567Z,13.10
2023-01-23T20:22:12.491Z,13.30
2023-01-23T20:24:41.105Z,12.90
2023-01-23T20:27:09.743Z,14.40
2023-01-23T20:29:39.400Z,13.10
2023-01-23T20:32:10.373Z,14.00
2023-01-23T20:34:38.824Z,12.70
2023-01-23T20:37:07.395Z,14.30
2023-01-23T20:39:40.890Z,13.20
2023-01-23T20:42:11.271Z,13.50
2023-01-23T20:44:41.999Z,12.30
2023-01-23T20:47:14.983Z,12.50
2023-01-23T20:49:43.794Z,13.20
2023-01-23T20:52:31.558Z,13.80
2023-01-23T20:55:00.971Z,12.70
2023-01-23T20:57:49.829Z,12.40
2023-01-23T21:00:31.382Z,12.50
2023-01-23T21:03:06.810Z,12.10
2023-01-23T21:05:35.667Z,13.30
2023-01-23T21:08:05.539Z,12.60
2023-01-23T21:10:34.231Z,12.60
2023-01-23T21:13:02.780Z,12.90
2023-01-23T21:15:33.189Z,12.70
2023-01-23T21:18:02.048Z,13.60
2023-01-23T21:20:30.623Z,12.90
2023-01-23T21:22:59.408Z,12.10
2023-01-23T21:25:29.531Z,11.60
2023-01-23T21:27:58.318Z,12.90
2023-01-23T21:30:27.038Z,12.20
2023-01-23T21:32:55.420Z,11.80
2023-01-23T21:35:24.570Z,10.60
2023-01-23T21:37:53.873Z,10.80
2023-01-23T21:40:22.405Z,11.10
2023-01-23T21:42:51.047Z,11.40
2023-01-23T21:45:20.050Z,11.40
2023-01-23T21:47:48.773Z,11.40
2023-01-23T21:50:19.179Z,11.80
2023-01-23T21:52:47.862Z,12.10
2023-01-23T21:55:16.432Z,11.40
2023-01-23T21:57:45.013Z,11.00
2023-01-23T22:00:32.395Z,10.70
2023-01-23T22:03:01.172Z,10.60
2023-01-23T22:05:30.353Z,11.10
2023-01-23T22:07:59.806Z,9.80
2023-01-23T22:10:29.093Z,10.70
2023-01-23T22:12:58.998Z,10.60
2023-01-23T22:15:27.490Z,10.80
2023-01-23T22:17:57.779Z,10.80
2023-01-23T22:20:28.035Z,10.50
2023-01-23T22:22:56.598Z,11.10
2023-01-23T22:25:24.880Z,10.80
2023-01-23T22:27:53.953Z,10.20
2023-01-23T22:30:23.139Z,9.50
2023-01-23T22:32:51.702Z,10.10
2023-01-23T22:35:23.055Z,10.90
2023-01-23T22:37:52.272Z,11.00
2023-01-23T22:40:20.727Z,11.30
2023-01-23T22:42:49.420Z,11.20
2023-01-23T22:45:19.465Z,11.60
2023-01-23T22:47:48.463Z,10.60
2023-01-23T22:50:19.539Z,11.70
2023-01-23T22:52:48.307Z,10.80
2023-01-23T22:55:17.196Z,11.00
2023-01-23T22:57:45.874Z,9.20
2023-01-23T23:00:16.032Z,10.00
2023-01-23T23:02:44.705Z,9.80
2023-01-23T23:05:13.320Z,11.90
2023-01-23T23:07:42.618Z,11.10
2023-01-23T23:10:13.627Z,10.70
2023-01-23T23:12:42.507Z,12.10
2023-01-23T23:15:11.140Z,11.40
2023-01-23T23:17:39.795Z,10.10
2023-01-23T23:20:09.050Z,11.00
2023-01-23T23:22:38.192Z,11.50
2023-01-23T23:25:07.121Z,9.40
2023-01-23T23:27:35.593Z,9.60
2023-01-23T23:30:04.752Z,9.60
2023-01-23T23:32:33.641Z,9.00
2023-01-23T23:35:02.778Z,9.60
2023-01-23T23:37:31.415Z,9.50
2023-01-23T23:39:59.888Z,8.50
2023-01-23T23:42:28.882Z,9.10
2023-01-23T23:44:59.418Z,11.00
2023-01-23T23:47:28.450Z,10.10
2023-01-23T23:49:56.903Z,9.80
2023-01-23T23:52:25.453Z,9.70
2023-01-23T23:54:54.360Z,10.40
2023-01-23T23:57:23.059Z,9.90
2023-01-23T23:59:52.642Z,9.70
